Nearby METAR Reports

 

KBML - Berlin, NH
Updated: Sun, 20-May-2018 11:52am EDT
Light rain, Overcast
Light rain, Overcast
 Wind from varies
Wind: varies 5 mph , 7 km/h
Temperature: 63°F , 17°C
Dew Point: 59°F , 15°C
Humidity: 88%
Barometer: 29.84 inHg , 1010.5 hPa
Summary: Light rain
Clouds: Overcast
Visibility: 10 miles , 16 km
Cloud details: Few Clouds 2700 ft
Mostly cloudy 5500 ft
Overcast 7000 ft
2018/05/20 15:52 KBML 201552Z AUTO VRB04KT 10SM -RA FEW027 BKN055 OVC070 17/15 A2984 RMK AO2 SLP106 P0000 T01720150
KCON - Concord, NH
Updated: Sun, 20-May-2018 11:51am EDT
Mostly cloudy
Mostly cloudy
 Wind from SW
Wind: SW 8 mph , 13 km/h
Temperature: 73°F , 23°C
Dew Point: 64°F , 18°C
Humidity: 74%
Barometer: 29.83 inHg , 1010.2 hPa
Clouds: Mostly cloudy
Visibility: 10 miles , 16 km
Cloud details: Few Clouds 2400 ft
Mostly cloudy 2800 ft
Mostly cloudy 7000 ft
2018/05/20 15:51 KCON 201551Z AUTO 23007KT 10SM FEW024 BKN028 BKN070 23/18 A2983 RMK AO2 RAE1454 SLP101 P0000 T02280183
KAFN - Lebanon, NH
Updated: Sun, 20-May-2018 11:52am EDT
Overcast
Overcast
 Wind from SSW
Wind: SSW 8 mph , 13 km/h
Temperature: 70°F , 21°C
Dew Point: 64°F , 18°C
Humidity: 83%
Barometer: 29.88 inHg , 1011.9 hPa
Clouds: Overcast
Visibility: 10 miles , 16 km
Cloud details: Mostly cloudy 1800 ft
Overcast 2500 ft
2018/05/20 15:52 KAFN 201552Z AUTO 21007KT 10SM BKN018 OVC025 21/18 A2988 RMK AO2 SLP123 T02060183
 
KMHT - Manchester, NH
Updated: Sun, 20-May-2018 11:53am EDT
Overcast
Overcast
 Wind from WSW
Wind: WSW 12 mph , 19 km/h, Gust: 18 mph , 30 km/h
Temperature: 75°F , 24°C
Dew Point: 63°F , 17°C
Humidity: 65%
Barometer: 29.82 inHg , 1009.8 hPa
Clouds: Overcast
Visibility: 10 miles , 16 km
Cloud details: Mostly cloudy 2600 ft
Mostly cloudy 7000 ft
Overcast 11000 ft
2018/05/20 15:53 KMHT 201553Z 24010G16KT 10SM BKN026 BKN070 OVC110 24/17 A2982 RMK AO2 SLP108 T02440172
KMWN - Mount Washington
Updated: Sun, 20-May-2018 11:49am EDT
Rain showers, Fog, Overcast
Rain showers, Fog, Overcast
 Wind from WNW
Wind: WNW 53 mph , 85 km/h
Temperature: 45°F , 7°C
Wind Chill: 33°F , 1°C
Dew Point: 45°F , 7°C
Humidity: 100%
Summary: Rain showers, Fog
Clouds: Overcast
Visibility: 1/16 mile , 0.1 km
Cloud details: Overcast 0 ft
2018/05/20 15:49 KMWN 201549Z 30046KT 1/16SM SHRA FG VV000 07/07
K25B - Portsmouth Harbor
Updated: Wed, 31-Dec-1969 7:00pm EST
NOT Current
unable to load K25B data RC=404 Not Found
unable to load K25B data RC=404 Not Found
 
 
KDDH - Bennington, VT
Updated: Sun, 20-May-2018 11:54am EDT
Overcast
Overcast
 Wind from varies
Wind: varies 3 mph , 6 km/h
Temperature: 66°F , 19°C
Dew Point: 63°F , 17°C
Humidity: 88%
Barometer: 29.89 inHg , 1012.2 hPa
Clouds: Overcast
Visibility: 10 miles , 16 km
Cloud details: Few Clouds 1400 ft
Overcast 2200 ft
2018/05/20 15:54 KDDH 201554Z AUTO VRB03KT 10SM FEW014 OVC022 19/17 A2989 RMK AO2 RAE40 SLP118 P0006 T01940172
K9B2 - Newport, VT
Updated: Wed, 31-Dec-1969 7:00pm EST
NOT Current
unable to load K9B2 data RC=404 Not Found
unable to load K9B2 data RC=404 Not Found
 
K1V4 - St Johnsbury, VT
Updated: Sun, 20-May-2018 11:54am EDT

 
Temperature: 63°F , 17°C
Dew Point: 61°F , 16°C
Humidity: 94%
Barometer: 29.84 inHg , 1010.5 hPa
2018/05/20 15:54 K1V4 201554Z AUTO 17/16 A2984 RMK AO1 SLP103 T01670156
 
KBGR - Bangor, ME
Updated: Sun, 20-May-2018 11:53am EDT
Overcast
Overcast
 Wind from W
Wind: W 9 mph , 15 km/h
Temperature: 63°F , 17°C
Dew Point: 57°F , 14°C
Humidity: 83%
Barometer: 29.78 inHg , 1008.5 hPa
Clouds: Overcast
Visibility: 10 miles , 16 km
Cloud details: Few Clouds 800 ft
Mostly cloudy 4400 ft
Overcast 7500 ft
2018/05/20 15:53 KBGR 201553Z 28008KT 240V310 10SM FEW008 BKN044 OVC075 17/14 A2978 RMK AO2 RAB12E39 SLP082 BINOVC P0000 T01670144
KBHB - Bar Harbor, ME
Updated: Sun, 20-May-2018 11:56am EDT
Light rain, Overcast
Light rain, Overcast
 Wind from SW
Wind: SW 7 mph , 11 km/h
Temperature: 57°F , 14°C
Dew Point: 57°F , 14°C
Humidity: 100%
Barometer: 29.79 inHg , 1008.8 hPa
Summary: Light rain
Clouds: Overcast
Visibility: 10 miles , 16 km
Cloud details: Overcast 200 ft
2018/05/20 15:56 KBHB 201556Z AUTO 22006KT 10SM -RA OVC002 14/14 A2979 RMK AO2 RAB49 SLP091 P0000 T01440139 $
74389 - Gray, ME
Updated: Wed, 31-Dec-1969 7:00pm EST
NOT Current
74389 not loaded
74389 not loaded
 
 
KGNR - Greenville,ME
Updated: Sun, 20-May-2018 11:56am EDT

 Wind from WNW
Wind: WNW 10 mph , 17 km/h, Gust: 20 mph , 31 km/h
Temperature: 57°F , 14°C
Dew Point: 55°F , 13°C
Humidity: 94%
Barometer: 29.76 inHg , 1007.8 hPa
2018/05/20 15:56 KGNR 201556Z AUTO 30009G17KT 260V330 14/13 A2976 RMK AO1 SLP085 P0002 T01390133
KOLD - Old Town, ME
Updated: Wed, 31-Dec-1969 7:00pm EST
NOT Current
unable to load KOLD data RC=404 Not Found
unable to load KOLD data RC=404 Not Found
 
KRUM - Rumford, ME
Updated: Wed, 31-Dec-1969 7:00pm EST
NOT Current
unable to load KRUM data RC=404 Not Found
unable to load KRUM data RC=404 Not Found
 







Contact Us

© 2018, johnsnhweather | Weather-Display (10.37S-(b69)) | Valid XHTML 1.0 | Valid CSS

This website is neither affiliated with nor endorsed by the National Weather Service, the town of Pittsburg or any other government agency.
The weather data contained herein is offered without any warranties expressed or implied, and is meant to supplement NOAA weather forecasts and information. Never base important decisions that could result in harm to people or property on this weather information.